Terminal Aerodrome Forecast
Issued by NWS

Current Version | Previous Version | Text Only | Print | Product List | Glossary On
Versions: 1 2 3 4 5 6 7 8 9 10 11 12 13 14 15 16
000
FTUS42 KTBW 102300
TAFLAL
TAF
KLAL 102337Z 1100/1124 VRB04KT P6SM VCSH SCT045 BKN250
     FM110300 VRB02KT P6SM BKN250
     FM111800 16004KT P6SM VCTS SCT045CB BKN110
      AMD NOT SKED 1103/1112=

USA.gov is the U.S. government's official web portal to all federal, state and local government web resources and services.